Maersk Barry — OYJE2 — position and weather

sailwx.info

Track history (hours):
 
Tides and Currents Weather Stations Pressure Air Temp Water Temp Dewpoint Dewpoint Depression Visibility Wind Speed Wind Dir Waves Ship Positions

Maersk Barry

Last reported at 2017-Feb-19 06:31 UTC. Time now 2017-Feb-21 10:10 UTC.
Position N 45°07' E 036°38'.

Length 175 m; draft 9.2 m.

Type: Ship. MMSI: 219127000.

Date/timePositionNaut miles runAvg speedWind from/ knotsBaromVisibWave heightAir tempDewpointWater temp
2017-Feb-19 06:31N 45°07' E 036°38'3 2.4
2017-Feb-19 05:24N 45°04' E 036°39'0 0.0
2017-Feb-19 04:33N 45°04' E 036°39'0 0.0
2017-Feb-19 03:18N 45°04' E 036°39'0 0.0
2017-Feb-18 14:30N 45°04' E 036°39'0 0.0
2017-Feb-18 13:27N 45°04' E 036°39'0 0.0
2017-Feb-18 12:21N 45°04' E 036°39'0 0.0
2017-Feb-18 11:15N 45°04' E 036°39'0 0.0
2017-Feb-18 09:33N 45°04' E 036°39'0 0.0
2017-Feb-18 08:27N 45°04' E 036°39'0 0.0
2017-Feb-18 07:33N 45°04' E 036°39'0 0.0
2017-Feb-18 06:33N 45°04' E 036°39'0 0.0
2017-Feb-18 05:21N 45°04' E 036°39'1 1.3
2017-Feb-18 04:31N 45°05' E 036°37'3 0.2
2017-Feb-17 14:15N 45°07' E 036°39'1 1.8
2017-Feb-17 13:32N 45°07' E 036°38'6 5.3
2017-Feb-17 12:20N 45°00' E 036°37'  
Track history (hours):
 
Tides and Currents Weather Stations Pressure Air Temp Water Temp Dewpoint Dewpoint Depression Visibility Wind Speed Wind Dir Waves Ship Positions

Maersk Barry

Last reported at 2017-Feb-19 06:31 UTC. Time now 2017-Feb-21 10:10 UTC.
Position N 45°07' E 036°38'.

Length 175 m; draft 9.2 m.

Type: Ship. MMSI: 219127000.

Date/timePositionNaut miles runAvg speedWind from/ knotsBaromVisibWave heightAir tempDewpointWater temp
2017-Feb-19 06:31N 45°07' E 036°38'3 2.4
2017-Feb-19 05:24N 45°04' E 036°39'0 0.0
2017-Feb-19 04:33N 45°04' E 036°39'0 0.0
2017-Feb-19 03:18N 45°04' E 036°39'0 0.0
2017-Feb-18 14:30N 45°04' E 036°39'0 0.0
2017-Feb-18 13:27N 45°04' E 036°39'0 0.0
2017-Feb-18 12:21N 45°04' E 036°39'0 0.0
2017-Feb-18 11:15N 45°04' E 036°39'0 0.0
2017-Feb-18 09:33N 45°04' E 036°39'0 0.0
2017-Feb-18 08:27N 45°04' E 036°39'0 0.0
2017-Feb-18 07:33N 45°04' E 036°39'0 0.0
2017-Feb-18 06:33N 45°04' E 036°39'0 0.0
2017-Feb-18 05:21N 45°04' E 036°39'1 1.3
2017-Feb-18 04:31N 45°05' E 036°37'3 0.2
2017-Feb-17 14:15N 45°07' E 036°39'1 1.8
2017-Feb-17 13:32N 45°07' E 036°38'6 5.3
2017-Feb-17 12:20N 45°00' E 036°37'  

Dump ship's entire track history